createdAt,value
2023-09-30T00:00:10.108Z,13.85
2023-09-30T00:01:09.751Z,13.84
2023-09-30T00:02:09.717Z,13.79
2023-09-30T00:03:09.782Z,13.82
2023-09-30T00:04:09.726Z,13.82
2023-09-30T00:05:09.677Z,13.79
2023-09-30T00:06:09.676Z,13.75
2023-09-30T00:07:09.629Z,13.73
2023-09-30T00:08:09.639Z,13.75
2023-09-30T00:09:09.629Z,13.73
2023-09-30T00:10:09.606Z,13.71
2023-09-30T00:11:09.577Z,13.71
2023-09-30T00:12:09.624Z,13.71
2023-09-30T00:13:09.567Z,13.69
2023-09-30T00:14:09.544Z,13.66
2023-09-30T00:15:09.554Z,13.62
2023-09-30T00:16:09.537Z,13.59
2023-09-30T00:17:09.553Z,13.57
2023-09-30T00:18:09.611Z,13.54
2023-09-30T00:19:09.478Z,13.54
2023-09-30T00:20:09.675Z,13.57
2023-09-30T00:21:09.491Z,13.57
2023-09-30T00:22:09.445Z,13.57
2023-09-30T00:23:09.438Z,13.55
2023-09-30T00:24:09.438Z,13.59
2023-09-30T00:25:09.401Z,13.57
2023-09-30T00:26:09.398Z,13.54
2023-09-30T00:27:09.458Z,13.55
2023-09-30T00:28:09.377Z,13.55
2023-09-30T00:29:09.351Z,13.59
2023-09-30T00:30:09.349Z,13.55
2023-09-30T00:31:09.441Z,13.55
2023-09-30T00:32:09.318Z,13.52
2023-09-30T00:33:09.446Z,13.49
2023-09-30T00:34:09.308Z,13.46
2023-09-30T00:35:09.261Z,13.46
2023-09-30T00:36:09.334Z,13.46
2023-09-30T00:37:09.233Z,13.44
2023-09-30T00:38:09.236Z,13.44
2023-09-30T00:39:09.291Z,13.42
2023-09-30T00:40:09.209Z,13.44
2023-09-30T00:41:09.193Z,13.44
2023-09-30T00:42:09.197Z,13.44
2023-09-30T00:43:09.152Z,13.42
2023-09-30T00:44:09.264Z,13.42
2023-09-30T00:45:09.158Z,13.41
2023-09-30T00:46:09.156Z,13.39
2023-09-30T00:47:09.176Z,13.38
2023-09-30T00:48:09.163Z,13.33
2023-09-30T00:49:09.124Z,13.36
2023-09-30T00:50:09.096Z,13.33
2023-09-30T00:51:09.124Z,13.30
2023-09-30T00:52:09.060Z,13.30
2023-09-30T00:53:09.025Z,13.26
2023-09-30T00:54:09.067Z,13.25
2023-09-30T00:55:09.031Z,13.25
2023-09-30T00:56:09.011Z,13.25
2023-09-30T00:57:09.007Z,13.23
2023-09-30T00:58:09.037Z,13.22
2023-09-30T00:59:08.972Z,13.20
2023-09-30T01:00:08.978Z,13.23
2023-09-30T01:01:08.940Z,13.20
2023-09-30T01:02:08.987Z,13.20
2023-09-30T01:03:09.080Z,13.17
2023-09-30T01:04:09.020Z,13.14
2023-09-30T01:05:08.876Z,13.14
2023-09-30T01:06:08.940Z,13.14
2023-09-30T01:07:08.842Z,13.12
2023-09-30T01:08:08.858Z,13.12
2023-09-30T01:09:08.835Z,13.10
2023-09-30T01:10:08.818Z,13.05
2023-09-30T01:11:08.785Z,13.05
2023-09-30T01:12:08.853Z,13.07
2023-09-30T01:13:08.810Z,13.07
2023-09-30T01:14:08.762Z,13.04
2023-09-30T01:15:08.998Z,13.04
2023-09-30T01:16:08.854Z,13.03
2023-09-30T01:17:08.746Z,13.03
2023-09-30T01:18:08.840Z,13.04
2023-09-30T01:19:08.693Z,13.07
2023-09-30T01:20:08.694Z,13.07
2023-09-30T01:21:08.697Z,13.10
2023-09-30T01:22:08.665Z,13.08
2023-09-30T01:23:08.655Z,13.10
2023-09-30T01:24:08.649Z,13.10
2023-09-30T01:25:08.619Z,13.10
2023-09-30T01:26:08.602Z,13.08
2023-09-30T01:27:08.623Z,13.07
2023-09-30T01:28:08.582Z,13.05
2023-09-30T01:29:08.585Z,13.04
2023-09-30T01:30:08.595Z,13.01
2023-09-30T01:31:08.660Z,13.00
2023-09-30T01:32:08.542Z,13.00
2023-09-30T01:33:08.648Z,12.97
2023-09-30T01:34:08.494Z,13.01
2023-09-30T01:35:08.480Z,13.00
2023-09-30T01:36:08.604Z,12.97
2023-09-30T01:37:08.471Z,13.03
2023-09-30T01:38:08.452Z,13.03
2023-09-30T01:39:08.437Z,13.01
2023-09-30T01:40:08.428Z,13.00
2023-09-30T01:41:08.404Z,12.96
2023-09-30T01:42:08.422Z,12.93
2023-09-30T01:43:08.385Z,12.92
2023-09-30T01:44:08.366Z,12.89
2023-09-30T01:45:08.419Z,12.86
2023-09-30T01:46:08.370Z,12.86
2023-09-30T01:47:08.322Z,12.89
2023-09-30T01:48:08.344Z,12.89
2023-09-30T01:49:08.291Z,12.87
2023-09-30T01:50:08.301Z,12.87
2023-09-30T01:51:08.271Z,12.86
2023-09-30T01:52:08.247Z,12.85
2023-09-30T01:53:08.256Z,12.83
2023-09-30T01:54:08.327Z,12.85
2023-09-30T01:55:08.251Z,12.87
2023-09-30T01:56:08.204Z,12.87
2023-09-30T01:57:08.186Z,12.86
2023-09-30T01:58:08.191Z,12.85
2023-09-30T01:59:08.176Z,12.86
2023-09-30T02:00:08.209Z,12.86
2023-09-30T02:01:08.159Z,12.87
2023-09-30T02:02:08.196Z,12.86
2023-09-30T02:03:08.315Z,12.85
2023-09-30T02:04:08.423Z,12.85
2023-09-30T02:05:08.075Z,12.85
2023-09-30T02:06:08.110Z,12.85
2023-09-30T02:07:08.075Z,12.83
2023-09-30T02:08:08.053Z,12.79
2023-09-30T02:09:08.060Z,12.82
2023-09-30T02:10:08.014Z,12.82
2023-09-30T02:11:07.996Z,12.83
2023-09-30T02:12:08.077Z,12.83
2023-09-30T02:13:08.003Z,12.83
2023-09-30T02:14:07.980Z,12.82
2023-09-30T02:15:08.006Z,12.79
2023-09-30T02:16:08.006Z,12.78
2023-09-30T02:17:07.911Z,12.79
2023-09-30T02:18:07.987Z,12.79
2023-09-30T02:19:07.885Z,12.79
2023-09-30T02:20:07.895Z,12.78
2023-09-30T02:21:07.874Z,12.79
2023-09-30T02:22:07.906Z,12.77
2023-09-30T02:23:07.838Z,12.75
2023-09-30T02:24:07.889Z,12.74
2023-09-30T02:25:07.808Z,12.71
2023-09-30T02:26:07.799Z,12.71
2023-09-30T02:27:07.828Z,12.72
2023-09-30T02:28:07.764Z,12.74
2023-09-30T02:29:07.746Z,12.72
2023-09-30T02:30:07.797Z,12.71
2023-09-30T02:31:07.786Z,12.70
2023-09-30T02:32:07.725Z,12.67
2023-09-30T02:33:07.777Z,12.65
2023-09-30T02:34:07.687Z,12.67
2023-09-30T02:35:07.663Z,12.65
2023-09-30T02:36:07.723Z,12.64
2023-09-30T02:37:07.663Z,12.60
2023-09-30T02:38:07.627Z,12.60
2023-09-30T02:39:07.665Z,12.60
2023-09-30T02:40:07.604Z,12.62
2023-09-30T02:41:07.633Z,12.64
2023-09-30T02:42:07.609Z,12.62
2023-09-30T02:43:07.554Z,12.60
2023-09-30T02:44:07.549Z,12.57
2023-09-30T02:45:07.628Z,12.56
2023-09-30T02:46:07.609Z,12.53
2023-09-30T02:47:07.510Z,12.52
2023-09-30T02:48:07.518Z,12.52
2023-09-30T02:49:07.568Z,12.47
2023-09-30T02:50:07.520Z,12.50
2023-09-30T02:51:07.467Z,12.52
2023-09-30T02:52:07.464Z,12.53
2023-09-30T02:53:07.430Z,12.53
2023-09-30T02:54:07.421Z,12.52
2023-09-30T02:55:07.408Z,12.50
2023-09-30T02:56:07.405Z,12.49
2023-09-30T02:57:07.369Z,12.46
2023-09-30T02:58:07.364Z,12.41
2023-09-30T02:59:07.349Z,12.38
2023-09-30T03:00:07.477Z,12.35
2023-09-30T03:01:07.499Z,12.32
2023-09-30T03:02:07.342Z,12.29
2023-09-30T03:03:07.419Z,12.29
2023-09-30T03:04:07.304Z,12.27
2023-09-30T03:05:07.311Z,12.28
2023-09-30T03:06:07.264Z,12.28
2023-09-30T03:07:07.274Z,12.28
2023-09-30T03:08:07.247Z,12.27
2023-09-30T03:09:07.228Z,12.27
2023-09-30T03:10:07.208Z,12.23
2023-09-30T03:11:07.211Z,12.20
2023-09-30T03:12:07.207Z,12.20
2023-09-30T03:13:07.168Z,12.19
2023-09-30T03:14:07.160Z,12.19
2023-09-30T03:15:07.134Z,12.19
2023-09-30T03:16:07.132Z,12.19
2023-09-30T03:17:07.166Z,12.17
2023-09-30T03:18:07.131Z,12.14
2023-09-30T03:19:07.094Z,12.14
2023-09-30T03:20:07.071Z,12.13
2023-09-30T03:21:07.053Z,12.14
2023-09-30T03:22:07.044Z,12.13
2023-09-30T03:23:07.045Z,12.13
2023-09-30T03:24:07.021Z,12.10
2023-09-30T03:25:06.998Z,12.09
2023-09-30T03:26:06.984Z,12.04
2023-09-30T03:27:06.965Z,12.05
2023-09-30T03:28:06.968Z,12.07
2023-09-30T03:29:06.939Z,12.10
2023-09-30T03:30:06.976Z,12.07
2023-09-30T03:31:06.958Z,12.10
2023-09-30T03:32:07.002Z,12.10
2023-09-30T03:33:06.927Z,12.13
2023-09-30T03:34:06.884Z,12.12
2023-09-30T03:35:06.876Z,12.14
2023-09-30T03:36:06.853Z,12.16
2023-09-30T03:37:06.903Z,12.21
2023-09-30T03:38:06.819Z,12.23
2023-09-30T03:39:06.846Z,12.23
2023-09-30T03:40:06.803Z,12.24
2023-09-30T03:41:06.808Z,12.20
2023-09-30T03:42:06.780Z,12.19
2023-09-30T03:43:06.762Z,12.16
2023-09-30T03:44:06.739Z,12.14
2023-09-30T03:45:06.738Z,12.16
2023-09-30T03:46:06.717Z,12.13
2023-09-30T03:47:06.733Z,12.13
2023-09-30T03:48:06.720Z,12.14
2023-09-30T03:49:06.717Z,12.13
2023-09-30T03:50:06.687Z,12.10
2023-09-30T03:51:06.656Z,12.10
2023-09-30T03:52:06.640Z,12.02
2023-09-30T03:53:06.619Z,11.99
2023-09-30T03:54:06.701Z,11.94
2023-09-30T03:55:06.604Z,11.91
2023-09-30T03:56:06.597Z,11.86
2023-09-30T03:57:06.582Z,11.83
2023-09-30T03:58:06.548Z,11.83
2023-09-30T03:59:06.539Z,11.85
2023-09-30T04:00:06.533Z,11.82
2023-09-30T04:01:06.631Z,11.82
2023-09-30T04:02:06.505Z,11.80
2023-09-30T04:03:06.553Z,11.82
2023-09-30T04:04:06.627Z,11.82
2023-09-30T04:05:06.483Z,11.82
2023-09-30T04:06:06.445Z,11.79
2023-09-30T04:07:06.425Z,11.82
2023-09-30T04:08:06.463Z,11.80
2023-09-30T04:09:06.408Z,11.82
2023-09-30T04:10:06.422Z,11.85
2023-09-30T04:11:06.392Z,11.88
2023-09-30T04:12:10.235Z,11.88
2023-09-30T04:13:06.359Z,11.85
2023-09-30T04:14:06.344Z,11.82
2023-09-30T04:15:06.352Z,11.79
2023-09-30T04:16:06.321Z,11.75
2023-09-30T04:17:06.311Z,11.73
2023-09-30T04:18:06.322Z,11.72
2023-09-30T04:19:06.296Z,11.75
2023-09-30T04:20:06.249Z,11.75
2023-09-30T04:21:06.266Z,11.79
2023-09-30T04:22:06.217Z,11.80
2023-09-30T04:23:06.224Z,11.83
2023-09-30T04:24:06.218Z,11.83
2023-09-30T04:25:06.192Z,11.86
2023-09-30T04:26:06.173Z,11.83
2023-09-30T04:27:06.167Z,11.86
2023-09-30T04:28:06.159Z,11.86
2023-09-30T04:29:06.181Z,11.86
2023-09-30T04:30:06.126Z,11.86
2023-09-30T04:31:06.290Z,11.90
2023-09-30T04:32:06.222Z,11.88
2023-09-30T04:33:06.163Z,11.90
2023-09-30T04:34:06.109Z,11.88
2023-09-30T04:35:06.052Z,11.94
2023-09-30T04:36:06.047Z,11.98
2023-09-30T04:37:06.046Z,12.01
2023-09-30T04:38:06.034Z,12.01
2023-09-30T04:39:06.040Z,12.05
2023-09-30T04:40:05.986Z,12.05
2023-09-30T04:41:05.999Z,12.09
2023-09-30T04:42:05.990Z,12.12
2023-09-30T04:43:05.961Z,12.14
2023-09-30T04:44:05.938Z,12.16
2023-09-30T04:45:05.923Z,12.21
2023-09-30T04:46:05.937Z,12.21
2023-09-30T04:47:05.915Z,12.27
2023-09-30T04:48:05.996Z,12.28
2023-09-30T04:49:05.869Z,12.28
2023-09-30T04:50:05.862Z,12.28
2023-09-30T04:51:05.846Z,12.24
2023-09-30T04:52:05.839Z,12.21
2023-09-30T04:53:05.829Z,12.20
2023-09-30T04:54:05.813Z,12.20
2023-09-30T04:55:05.803Z,12.21
2023-09-30T04:56:05.827Z,12.20
2023-09-30T04:57:05.768Z,12.23
2023-09-30T04:58:05.775Z,12.24
2023-09-30T04:59:05.741Z,12.28
2023-09-30T05:00:05.723Z,12.29
2023-09-30T05:01:05.879Z,12.31
2023-09-30T05:02:05.697Z,12.29
2023-09-30T05:03:05.753Z,12.35
2023-09-30T05:04:05.762Z,12.34
2023-09-30T05:05:05.659Z,12.35
2023-09-30T05:06:05.653Z,12.34
2023-09-30T05:07:05.624Z,12.39
2023-09-30T05:08:05.627Z,12.39
2023-09-30T05:09:05.609Z,12.42
2023-09-30T05:10:05.596Z,12.45
2023-09-30T05:11:05.575Z,12.45
2023-09-30T05:12:05.583Z,12.45
2023-09-30T05:13:05.552Z,12.42
2023-09-30T05:14:05.602Z,12.47
2023-09-30T05:15:05.541Z,12.46
2023-09-30T05:16:05.576Z,12.47
2023-09-30T05:17:05.622Z,12.49
2023-09-30T05:18:05.535Z,12.47
2023-09-30T05:19:05.545Z,12.52
2023-09-30T05:20:05.464Z,12.52
2023-09-30T05:21:05.448Z,12.56
2023-09-30T05:22:05.424Z,12.53
2023-09-30T05:23:05.420Z,12.50
2023-09-30T05:24:05.421Z,12.56
2023-09-30T05:25:05.416Z,12.57
2023-09-30T05:26:05.380Z,12.62
2023-09-30T05:27:05.364Z,12.68
2023-09-30T05:28:05.365Z,12.68
2023-09-30T05:29:05.350Z,12.70
2023-09-30T05:30:05.325Z,12.68
2023-09-30T05:31:05.391Z,12.65
2023-09-30T05:32:05.302Z,12.65
2023-09-30T05:33:05.347Z,12.67
2023-09-30T05:34:05.293Z,12.65
2023-09-30T05:35:05.249Z,12.65
2023-09-30T05:36:05.233Z,12.62
2023-09-30T05:37:05.234Z,12.64
2023-09-30T05:38:05.220Z,12.67
2023-09-30T05:39:05.216Z,12.68
2023-09-30T05:40:05.179Z,12.65
2023-09-30T05:41:05.208Z,12.62
2023-09-30T05:42:05.172Z,12.60
2023-09-30T05:43:05.174Z,12.59
2023-09-30T05:44:05.137Z,12.62
2023-09-30T05:45:05.145Z,12.62
2023-09-30T05:46:05.186Z,12.60
2023-09-30T05:47:05.120Z,12.60
2023-09-30T05:48:05.219Z,12.59
2023-09-30T05:49:05.100Z,12.67
2023-09-30T05:50:05.094Z,12.67
2023-09-30T05:51:05.044Z,12.72
2023-09-30T05:52:05.053Z,12.77
2023-09-30T05:53:05.022Z,12.77
2023-09-30T05:54:05.004Z,12.79
2023-09-30T05:55:04.989Z,12.79
2023-09-30T05:56:05.136Z,12.83
2023-09-30T05:57:04.981Z,12.87
2023-09-30T05:58:04.944Z,12.86
2023-09-30T05:59:04.936Z,12.87
2023-09-30T06:00:04.983Z,12.87
2023-09-30T06:01:04.989Z,12.90
2023-09-30T06:02:04.983Z,12.92
2023-09-30T06:03:05.100Z,12.92
2023-09-30T06:04:05.151Z,12.92
2023-09-30T06:05:04.902Z,12.93
2023-09-30T06:06:04.911Z,12.92
2023-09-30T06:07:04.830Z,12.95
2023-09-30T06:08:04.958Z,12.96
2023-09-30T06:09:04.803Z,12.97
2023-09-30T06:10:04.858Z,13.01
2023-09-30T06:11:04.815Z,13.01
2023-09-30T06:12:04.796Z,13.00
2023-09-30T06:13:04.772Z,13.01
2023-09-30T06:14:04.742Z,13.04
2023-09-30T06:15:04.765Z,13.05
2023-09-30T06:16:05.100Z,13.08
2023-09-30T06:17:04.707Z,13.15
2023-09-30T06:18:04.718Z,13.25
2023-09-30T06:19:04.704Z,13.30
2023-09-30T06:20:04.683Z,13.39
2023-09-30T06:21:04.648Z,13.44
2023-09-30T06:22:04.627Z,13.46
2023-09-30T06:23:04.641Z,13.52
2023-09-30T06:24:04.594Z,13.55
2023-09-30T06:25:04.787Z,13.57
2023-09-30T06:26:04.579Z,13.57
2023-09-30T06:27:04.564Z,13.54
2023-09-30T06:28:04.590Z,13.54
2023-09-30T06:29:04.566Z,13.54
2023-09-30T06:30:04.547Z,13.55
2023-09-30T06:31:04.553Z,13.57
2023-09-30T06:32:04.571Z,13.59
2023-09-30T06:33:04.512Z,13.57
2023-09-30T06:34:04.515Z,13.59
2023-09-30T06:35:04.526Z,13.60
2023-09-30T06:36:04.442Z,13.64
2023-09-30T06:37:04.448Z,13.69
2023-09-30T06:38:04.452Z,13.67
2023-09-30T06:39:04.433Z,13.64
2023-09-30T06:40:04.387Z,13.62
2023-09-30T06:41:04.380Z,13.60
2023-09-30T06:42:04.412Z,13.60
2023-09-30T06:43:04.366Z,13.60
2023-09-30T06:44:04.347Z,13.63
2023-09-30T06:45:04.319Z,13.70
2023-09-30T06:46:04.441Z,13.71
2023-09-30T06:47:04.326Z,13.73
2023-09-30T06:48:04.383Z,13.75
2023-09-30T06:49:04.272Z,13.75
2023-09-30T06:50:04.317Z,13.79
2023-09-30T06:51:04.283Z,13.85
2023-09-30T06:52:04.235Z,13.91
2023-09-30T06:53:04.451Z,13.92
2023-09-30T06:54:04.218Z,14.00
2023-09-30T06:55:04.197Z,14.04
2023-09-30T06:56:04.176Z,14.09
2023-09-30T06:57:04.214Z,14.10
2023-09-30T06:58:04.165Z,14.12
2023-09-30T06:59:04.136Z,14.14
2023-09-30T07:00:04.169Z,14.15
2023-09-30T07:01:04.222Z,14.27
2023-09-30T07:02:04.114Z,14.43
2023-09-30T07:03:04.169Z,14.54
2023-09-30T07:04:04.145Z,14.57
2023-09-30T07:05:04.064Z,14.61
2023-09-30T07:06:04.043Z,14.70
2023-09-30T07:07:04.066Z,14.78
2023-09-30T07:08:04.019Z,14.81
2023-09-30T07:09:04.008Z,14.78
2023-09-30T07:10:04.020Z,14.83
2023-09-30T07:11:03.991Z,14.84
2023-09-30T07:12:03.980Z,14.84
2023-09-30T07:13:03.964Z,14.94
2023-09-30T07:14:04.042Z,15.01
2023-09-30T07:15:03.928Z,14.98
2023-09-30T07:16:04.026Z,15.06
2023-09-30T07:17:03.916Z,15.09
2023-09-30T07:18:03.916Z,15.19
2023-09-30T07:19:03.981Z,15.27
2023-09-30T07:20:04.107Z,15.27
2023-09-30T07:21:03.856Z,15.34
2023-09-30T07:22:04.988Z,15.41
2023-09-30T07:23:18.208Z,15.51
2023-09-30T07:24:04.823Z,15.53
2023-09-30T07:25:03.887Z,15.57
2023-09-30T07:26:03.781Z,15.54
2023-09-30T07:27:06.492Z,15.50
2023-09-30T07:28:04.871Z,15.53
2023-09-30T07:29:03.749Z,15.50
2023-09-30T07:30:03.760Z,15.53
2023-09-30T07:31:03.819Z,15.51
2023-09-30T07:32:03.762Z,15.54
2023-09-30T07:33:03.770Z,15.65
2023-09-30T07:34:03.790Z,15.78
2023-09-30T07:35:03.696Z,15.93
2023-09-30T07:36:03.660Z,16.01
2023-09-30T07:37:03.635Z,16.12
2023-09-30T07:38:03.628Z,16.17
2023-09-30T07:39:03.633Z,16.08
2023-09-30T07:40:03.608Z,16.11
2023-09-30T07:41:03.607Z,16.24
2023-09-30T07:42:03.565Z,16.21
2023-09-30T07:43:03.670Z,16.24
2023-09-30T07:44:03.546Z,16.08
2023-09-30T07:45:03.533Z,16.15
2023-09-30T07:46:03.595Z,16.21
2023-09-30T07:47:03.580Z,16.24
2023-09-30T07:48:03.526Z,16.33
2023-09-30T07:49:03.514Z,16.38
2023-09-30T07:50:03.613Z,16.45
2023-09-30T07:51:03.445Z,16.50
2023-09-30T07:52:03.425Z,16.46
2023-09-30T07:53:03.429Z,16.48
2023-09-30T07:54:19.062Z,16.43
2023-09-30T07:55:04.439Z,16.45
2023-09-30T07:56:03.382Z,16.52
2023-09-30T07:57:03.371Z,16.52
2023-09-30T07:58:03.416Z,16.46
2023-09-30T07:59:03.382Z,16.50
2023-09-30T08:00:03.346Z,16.61
2023-09-30T08:01:03.397Z,16.70
2023-09-30T08:02:03.311Z,16.70
2023-09-30T08:03:03.327Z,16.66
2023-09-30T08:04:03.384Z,16.66
2023-09-30T08:05:03.263Z,16.66
2023-09-30T08:06:03.243Z,16.70
2023-09-30T08:07:03.246Z,16.58
2023-09-30T08:08:03.259Z,16.67
2023-09-30T08:09:03.209Z,16.78
2023-09-30T08:10:03.189Z,16.91
2023-09-30T08:11:03.185Z,16.89
2023-09-30T08:12:03.203Z,17.00
2023-09-30T08:13:03.189Z,17.07
2023-09-30T08:14:03.161Z,16.98
2023-09-30T08:15:03.169Z,17.03
2023-09-30T08:16:03.181Z,17.12
2023-09-30T08:17:03.130Z,17.25
2023-09-30T08:18:03.184Z,17.36
2023-09-30T08:19:03.104Z,17.40
2023-09-30T08:20:03.077Z,17.36
2023-09-30T08:21:03.120Z,17.25
2023-09-30T08:22:03.061Z,17.14
2023-09-30T08:23:03.029Z,17.18
2023-09-30T08:24:03.094Z,17.04
2023-09-30T08:25:03.096Z,17.03
2023-09-30T08:26:03.050Z,17.14
2023-09-30T08:27:02.968Z,17.37
2023-09-30T08:28:03.017Z,17.59
2023-09-30T08:29:02.951Z,17.68
2023-09-30T08:30:02.961Z,17.62
2023-09-30T08:31:02.985Z,17.59
2023-09-30T08:32:02.933Z,17.63
2023-09-30T08:33:03.087Z,17.68
2023-09-30T08:34:02.916Z,17.68
2023-09-30T08:35:02.910Z,17.64
2023-09-30T08:36:02.898Z,17.63
2023-09-30T08:37:02.844Z,17.78
2023-09-30T08:38:02.836Z,17.79
2023-09-30T08:39:02.892Z,17.79
2023-09-30T08:40:03.022Z,17.99
2023-09-30T08:41:02.846Z,18.15
2023-09-30T08:42:02.863Z,18.29
2023-09-30T08:43:02.803Z,18.30
2023-09-30T08:44:02.797Z,18.17
2023-09-30T08:45:02.811Z,17.92
2023-09-30T08:46:02.830Z,17.79
2023-09-30T08:47:02.800Z,17.70
2023-09-30T08:48:02.737Z,17.75
2023-09-30T08:49:02.724Z,17.82
2023-09-30T08:50:02.687Z,17.87
2023-09-30T08:51:02.680Z,17.87
2023-09-30T08:52:02.739Z,18.08
2023-09-30T08:53:02.672Z,18.25
2023-09-30T08:54:02.713Z,18.33
2023-09-30T08:55:02.654Z,18.48
2023-09-30T08:56:02.598Z,18.60
2023-09-30T08:57:02.587Z,18.72
2023-09-30T08:58:02.675Z,18.69
2023-09-30T08:59:02.705Z,18.65
2023-09-30T09:00:02.622Z,18.51
2023-09-30T09:01:02.642Z,18.52
2023-09-30T09:02:02.527Z,18.57
2023-09-30T09:03:02.574Z,18.70
2023-09-30T09:04:02.740Z,18.72
2023-09-30T09:05:02.555Z,18.76
2023-09-30T09:06:02.498Z,18.78
2023-09-30T09:07:02.589Z,18.80
2023-09-30T09:08:02.460Z,18.76
2023-09-30T09:09:02.433Z,18.76
2023-09-30T09:10:02.423Z,18.91
2023-09-30T09:11:02.384Z,19.11
2023-09-30T09:12:02.424Z,19.25
2023-09-30T09:13:02.447Z,19.14
2023-09-30T09:14:02.381Z,18.90
2023-09-30T09:15:02.388Z,18.91
2023-09-30T09:16:02.539Z,18.91
2023-09-30T09:17:02.422Z,18.87
2023-09-30T09:18:02.421Z,19.04
2023-09-30T09:19:02.369Z,19.06
2023-09-30T09:20:02.325Z,19.10
2023-09-30T09:21:02.269Z,19.19
2023-09-30T09:22:02.375Z,19.19
2023-09-30T09:23:02.234Z,19.36
2023-09-30T09:24:02.267Z,19.33
2023-09-30T09:25:02.319Z,19.14
2023-09-30T09:26:02.248Z,18.91
2023-09-30T09:27:02.228Z,18.91
2023-09-30T09:28:02.236Z,19.04
2023-09-30T09:29:02.137Z,19.19
2023-09-30T09:30:02.321Z,19.32
2023-09-30T09:31:02.344Z,19.50
2023-09-30T09:32:02.223Z,19.66
2023-09-30T09:33:02.151Z,19.81
2023-09-30T09:34:02.140Z,19.71
2023-09-30T09:35:02.103Z,19.58
2023-09-30T09:36:02.086Z,19.62
2023-09-30T09:37:02.142Z,19.69
2023-09-30T09:38:02.040Z,19.81
2023-09-30T09:39:02.375Z,19.76
2023-09-30T09:40:02.038Z,19.83
2023-09-30T09:41:02.019Z,19.95
2023-09-30T09:42:02.011Z,20.01
2023-09-30T09:43:02.010Z,19.98
2023-09-30T09:44:01.998Z,19.86
2023-09-30T09:45:02.100Z,19.83
2023-09-30T09:46:01.994Z,19.92
2023-09-30T09:47:01.980Z,20.02
2023-09-30T09:48:01.987Z,20.10
2023-09-30T09:49:02.067Z,20.16
2023-09-30T09:50:01.890Z,20.24
2023-09-30T09:51:01.887Z,20.32
2023-09-30T09:52:01.997Z,20.32
2023-09-30T09:53:02.015Z,20.29
2023-09-30T09:54:01.829Z,20.36
2023-09-30T09:55:01.947Z,20.38
2023-09-30T09:56:01.873Z,20.47
2023-09-30T09:57:01.794Z,20.52
2023-09-30T09:58:01.836Z,20.69
2023-09-30T09:59:01.772Z,20.69
2023-09-30T10:00:01.788Z,20.67
2023-09-30T10:01:01.833Z,20.61
2023-09-30T10:02:01.771Z,20.64
2023-09-30T10:03:01.802Z,20.62
2023-09-30T10:04:01.783Z,20.48
2023-09-30T10:05:01.780Z,20.32
2023-09-30T10:06:01.712Z,20.38
2023-09-30T10:07:01.821Z,20.36
2023-09-30T10:08:01.652Z,20.51
2023-09-30T10:09:01.655Z,20.32
2023-09-30T10:10:01.723Z,20.28
2023-09-30T10:11:01.607Z,20.28
2023-09-30T10:12:01.588Z,20.31
2023-09-30T10:13:01.626Z,20.38
2023-09-30T10:14:01.573Z,20.48
2023-09-30T10:15:01.625Z,20.58
2023-09-30T10:16:01.581Z,20.42
2023-09-30T10:17:01.537Z,20.31
2023-09-30T10:18:01.608Z,20.10
2023-09-30T10:19:01.572Z,20.13
2023-09-30T10:20:01.505Z,20.21
2023-09-30T10:21:01.526Z,20.17
2023-09-30T10:22:01.557Z,20.16
2023-09-30T10:23:01.439Z,20.26
2023-09-30T10:24:01.436Z,20.32
2023-09-30T10:25:01.444Z,20.52
2023-09-30T10:26:01.389Z,20.38
2023-09-30T10:27:01.375Z,20.48
2023-09-30T10:28:01.540Z,20.54
2023-09-30T10:29:01.424Z,20.58
2023-09-30T10:30:01.380Z,20.52
2023-09-30T10:31:01.444Z,20.52
2023-09-30T10:32:01.396Z,20.70
2023-09-30T10:33:01.377Z,20.82
2023-09-30T10:34:01.586Z,20.95
2023-09-30T10:35:01.394Z,20.80
2023-09-30T10:36:01.296Z,20.94
2023-09-30T10:37:01.373Z,21.04
2023-09-30T10:38:01.281Z,21.06
2023-09-30T10:39:01.265Z,20.92
2023-09-30T10:40:01.389Z,20.80
2023-09-30T10:41:01.273Z,21.09
2023-09-30T10:42:01.186Z,21.07
2023-09-30T10:43:01.269Z,21.06
2023-09-30T10:44:01.153Z,21.07
2023-09-30T10:45:01.150Z,21.16
2023-09-30T10:46:01.184Z,21.32
2023-09-30T10:47:01.194Z,21.42
2023-09-30T10:48:01.111Z,21.61
2023-09-30T10:49:01.429Z,21.47
2023-09-30T10:50:01.049Z,21.22
2023-09-30T10:51:01.100Z,21.14
2023-09-30T10:52:01.316Z,21.03
2023-09-30T10:53:01.039Z,21.10
2023-09-30T10:54:01.033Z,21.27
2023-09-30T10:55:01.051Z,21.10
2023-09-30T10:56:01.002Z,20.70
2023-09-30T10:57:01.004Z,20.41
2023-09-30T10:58:01.070Z,20.39
2023-09-30T10:59:01.049Z,20.38
2023-09-30T11:00:00.961Z,20.39
2023-09-30T11:01:01.032Z,20.62
2023-09-30T11:02:01.233Z,20.92
2023-09-30T11:03:03.242Z,21.14
2023-09-30T11:04:01.103Z,21.28
2023-09-30T11:05:01.316Z,21.37
2023-09-30T11:06:12.427Z,21.24
2023-09-30T11:07:02.012Z,21.32
2023-09-30T11:08:01.009Z,21.19
2023-09-30T11:09:00.868Z,20.97
2023-09-30T11:10:00.888Z,20.87
2023-09-30T11:11:00.782Z,20.64
2023-09-30T11:12:00.927Z,20.43
2023-09-30T11:13:00.864Z,20.31
2023-09-30T11:14:00.754Z,20.41
2023-09-30T11:15:00.805Z,20.35
2023-09-30T11:16:00.718Z,20.26
2023-09-30T11:17:00.846Z,20.33
2023-09-30T11:18:00.808Z,20.51
2023-09-30T11:19:00.867Z,20.76
2023-09-30T11:20:00.720Z,20.82
2023-09-30T11:21:00.680Z,20.91
2023-09-30T11:22:00.678Z,20.85
2023-09-30T11:23:00.625Z,20.84
2023-09-30T11:24:00.678Z,20.80
2023-09-30T11:25:00.614Z,20.77
2023-09-30T11:26:00.618Z,20.61
2023-09-30T11:27:00.722Z,20.32
2023-09-30T11:28:00.638Z,20.23
2023-09-30T11:29:00.562Z,20.11
2023-09-30T11:30:00.548Z,20.10
2023-09-30T11:31:00.675Z,19.95
2023-09-30T11:32:00.528Z,19.83
2023-09-30T11:33:00.583Z,19.76
2023-09-30T11:34:00.566Z,19.68
2023-09-30T11:35:00.462Z,19.62
2023-09-30T11:36:00.462Z,19.59
2023-09-30T11:37:00.527Z,19.50
2023-09-30T11:38:01.070Z,19.40
2023-09-30T11:39:02.799Z,19.40
2023-09-30T11:40:00.748Z,19.43
2023-09-30T11:41:00.491Z,19.50
2023-09-30T11:42:00.426Z,19.48
2023-09-30T11:43:00.548Z,19.51
2023-09-30T11:44:00.531Z,19.48
2023-09-30T11:45:00.327Z,19.50
2023-09-30T11:46:00.494Z,19.54
2023-09-30T11:47:00.395Z,19.46
2023-09-30T11:48:00.391Z,19.46
2023-09-30T11:49:00.552Z,19.50
2023-09-30T11:50:00.600Z,19.40
2023-09-30T11:51:00.332Z,19.37
2023-09-30T11:52:00.395Z,19.40
2023-09-30T11:53:00.306Z,19.40
2023-09-30T11:54:00.250Z,19.36
2023-09-30T11:55:00.267Z,19.33
2023-09-30T11:56:00.255Z,19.32
2023-09-30T11:57:00.314Z,19.28
2023-09-30T11:58:00.272Z,19.37
2023-09-30T11:59:00.528Z,19.59
2023-09-30T12:00:00.199Z,19.76
2023-09-30T12:01:00.229Z,19.94
2023-09-30T12:02:13.823Z,20.14
2023-09-30T12:03:01.176Z,20.28
2023-09-30T12:04:00.201Z,20.50
2023-09-30T12:05:00.275Z,20.69
2023-09-30T12:06:00.083Z,20.76
2023-09-30T12:07:00.107Z,20.84
2023-09-30T12:08:00.052Z,20.91
2023-09-30T12:09:00.338Z,20.92
2023-09-30T12:10:00.077Z,21.03
2023-09-30T12:11:00.027Z,21.06
2023-09-30T12:12:00.178Z,21.04
2023-09-30T12:13:00.032Z,21.14
2023-09-30T12:14:00.020Z,21.19
2023-09-30T12:15:00.082Z,21.21
2023-09-30T12:16:00.031Z,21.24
2023-09-30T12:17:00.183Z,21.16
2023-09-30T12:18:00.069Z,21.12
2023-09-30T12:19:00.141Z,20.99
2023-09-30T12:19:59.969Z,21.01
2023-09-30T12:20:59.940Z,21.07
2023-09-30T12:22:00.058Z,21.17
2023-09-30T12:22:59.876Z,21.25
2023-09-30T12:24:00.041Z,21.37
2023-09-30T12:24:59.895Z,21.43
2023-09-30T12:26:13.052Z,21.34
2023-09-30T12:27:00.890Z,21.29
2023-09-30T12:28:00.019Z,21.31
2023-09-30T12:29:00.014Z,21.38
2023-09-30T12:29:59.986Z,21.40
2023-09-30T12:30:59.893Z,21.37
2023-09-30T12:32:00.086Z,21.42
2023-09-30T12:32:59.769Z,21.43
2023-09-30T12:33:59.903Z,21.43
2023-09-30T12:34:59.719Z,21.49
2023-09-30T12:35:59.724Z,21.44
2023-09-30T12:36:59.674Z,21.46
2023-09-30T12:37:59.676Z,21.38
2023-09-30T12:38:59.783Z,21.31
2023-09-30T12:39:59.744Z,21.24
2023-09-30T12:40:59.734Z,21.29
2023-09-30T12:41:59.661Z,21.37
2023-09-30T12:42:59.669Z,21.40
2023-09-30T12:43:59.577Z,21.42
2023-09-30T12:44:59.517Z,21.40
2023-09-30T12:45:59.582Z,21.28
2023-09-30T12:46:59.644Z,21.19
2023-09-30T12:47:59.622Z,21.25
2023-09-30T12:48:59.690Z,21.27
2023-09-30T12:49:59.526Z,21.38
2023-09-30T12:50:59.464Z,21.47
2023-09-30T12:51:59.559Z,21.56